Time;durP1;ratioP1;P1;durP2;ratioP2;P2;SDS_P1;SDS_P2;PMS_P1;PMS_P2;Temp;Humidity;BMP_temperature;BMP_pressure;BME280_temperature;BME280_humidity;BME280_pressure;Samples;Min_cycle;Max_cycle;Signal;HPM_P1;HPM_P2
2022/04/01 00:01:56;;;;;;;3.03;0.90;;;;;;;;;;6222680;22;20020;-88
2022/04/01 00:04:24;;;;;;;1.52;0.68;;;;;;;;;;6247816;22;20016;-88
2022/04/01 00:06:52;;;;;;;2.00;0.70;;;;;;;;;;6257465;22;20484;-88
2022/04/01 00:09:20;;;;;;;1.02;0.70;;;;;;;;;;6221802;22;20042;-88
2022/04/01 00:11:48;;;;;;;1.67;1.00;;;;;;;;;;6256990;22;20094;-88
2022/04/01 00:14:16;;;;;;;1.15;0.75;;;;;;;;;;6258378;22;20046;-88
2022/04/01 00:16:44;;;;;;;1.48;0.75;;;;;;;;;;6258101;22;20065;-87
2022/04/01 00:19:13;;;;;;;3.47;0.82;;;;;;;;;;6258508;22;20027;-88
2022/04/01 00:21:41;;;;;;;1.75;0.70;;;;;;;;;;6223008;22;20455;-92
2022/04/01 00:24:10;;;;;;;1.13;0.47;;;;;;;;;;6260686;22;20075;-92
2022/04/01 00:26:38;;;;;;;2.20;0.93;;;;;;;;;;6260186;22;20070;-92
2022/04/01 00:29:15;;;;;;;1.35;0.80;;;;;;;;;;6260389;22;20023;-91
2022/04/01 00:31:43;;;;;;;1.90;0.95;;;;;;;;;;6223547;22;20107;-91
2022/04/01 00:52:24;;;;;;;2.05;0.70;;;;;;;;;;6305908;22;20080;-90
2022/04/01 00:54:52;;;;;;;1.77;0.75;;;;;;;;;;6263964;22;20019;-92
2022/04/01 00:57:21;;;;;;;1.45;0.80;;;;;;;;;;6264259;22;20015;-93
2022/04/01 00:59:48;;;;;;;1.60;0.80;;;;;;;;;;6289934;22;20046;-93
2022/04/01 01:02:17;;;;;;;4.55;0.90;;;;;;;;;;6229550;22;20090;-93
2022/04/01 01:04:45;;;;;;;1.70;0.90;;;;;;;;;;6258521;22;20023;-93
2022/04/01 01:07:14;;;;;;;2.55;0.95;;;;;;;;;;6238784;22;20042;-93
2022/04/01 01:09:43;;;;;;;2.03;0.85;;;;;;;;;;6261907;22;20023;-93
2022/04/01 01:12:11;;;;;;;1.42;0.70;;;;;;;;;;6228100;22;20029;-89
2022/04/01 01:14:40;;;;;;;1.85;0.82;;;;;;;;;;6260238;22;20023;-89
2022/04/01 01:32:22;;;;;;;8.23;1.35;;;;;;;;;;6274994;22;20028;-93
2022/04/01 01:34:50;;;;;;;1.23;0.70;;;;;;;;;;6222788;22;20019;-93
2022/04/01 01:37:18;;;;;;;3.95;0.90;;;;;;;;;;6223270;22;20019;-93
2022/04/01 01:39:46;;;;;;;6.32;0.88;;;;;;;;;;6198506;22;20019;-94
2022/04/01 01:42:15;;;;;;;4.65;0.95;;;;;;;;;;6248084;22;20026;-93
2022/04/01 01:44:42;;;;;;;5.90;1.35;;;;;;;;;;6257945;22;20019;-93
2022/04/01 01:47:10;;;;;;;0.90;0.50;;;;;;;;;;6232924;22;20097;-93
2022/04/01 01:54:42;;;;;;;5.35;1.40;;;;;;;;;;6198684;22;20027;-93
2022/04/01 01:55:13;;;;;;;1.33;0.63;;;;;;;;;;6247084;22;20024;-89
2022/04/01 02:09:40;;;;;;;8.50;0.82;;;;;;;;;;6274783;22;20077;-92
2022/04/01 02:32:25;;;;;;;1.65;0.88;;;;;;;;;;6274611;22;20027;-91
2022/04/01 02:53:26;;;;;;;2.10;0.70;;;;;;;;;;6274393;22;20016;-91
2022/04/01 03:10:23;;;;;;;2.35;0.90;;;;;;;;;;6273892;22;20042;-89
2022/04/01 03:12:55;;;;;;;2.72;1.08;;;;;;;;;;6222047;22;20341;-89
2022/04/01 03:15:38;;;;;;;1.75;0.82;;;;;;;;;;6224610;22;20352;-89
2022/04/01 03:18:20;;;;;;;1.50;0.70;;;;;;;;;;6258603;22;20015;-89
2022/04/01 03:20:48;;;;;;;2.95;1.00;;;;;;;;;;6200393;22;20023;-93
2022/04/01 03:23:18;;;;;;;4.25;1.38;;;;;;;;;;6229878;22;20391;-92
2022/04/01 03:25:46;;;;;;;5.50;0.90;;;;;;;;;;6253099;22;20031;-91
2022/04/01 03:28:24;;;;;;;2.53;1.10;;;;;;;;;;6261935;22;20039;-93
2022/04/01 03:30:58;;;;;;;1.65;0.88;;;;;;;;;;6225062;22;20097;-89
2022/04/01 03:33:33;;;;;;;2.25;0.98;;;;;;;;;;6235727;22;20343;-89
2022/04/01 03:36:00;;;;;;;2.88;1.05;;;;;;;;;;6199358;22;20024;-88
2022/04/01 03:38:32;;;;;;;4.65;1.48;;;;;;;;;;6234959;22;20035;-89
2022/04/01 03:41:02;;;;;;;3.58;1.83;;;;;;;;;;6223729;22;20041;-90
2022/04/01 03:43:31;;;;;;;7.45;1.27;;;;;;;;;;6258436;22;20012;-90
2022/04/01 04:09:30;;;;;;;2.85;1.20;;;;;;;;;;6283355;22;20019;-93
2022/04/01 04:11:59;;;;;;;2.90;1.20;;;;;;;;;;6225712;22;20023;-90
2022/04/01 04:14:28;;;;;;;4.13;1.23;;;;;;;;;;6198344;22;20407;-89
2022/04/01 04:17:02;;;;;;;2.65;1.30;;;;;;;;;;6259454;22;20019;-89
2022/04/01 04:19:51;;;;;;;3.33;1.50;;;;;;;;;;6233425;22;20015;-89
2022/04/01 04:22:56;;;;;;;3.92;1.60;;;;;;;;;;6258972;22;20065;-89
2022/04/01 05:09:37;;;;;;;7.07;1.83;;;;;;;;;;6272985;22;20023;-82
2022/04/01 05:12:24;;;;;;;2.25;1.08;;;;;;;;;;6259128;22;20016;-82
2022/04/01 05:15:28;;;;;;;3.97;1.88;;;;;;;;;;6267779;22;20433;-82
2022/04/01 05:18:05;;;;;;;5.38;1.90;;;;;;;;;;6200238;22;20077;-82
2022/04/01 05:21:00;;;;;;;4.07;1.80;;;;;;;;;;6235171;22;20015;-84
2022/04/01 05:24:06;;;;;;;4.28;1.77;;;;;;;;;;6196517;22;20412;-83
2022/04/01 05:32:00;;;;;;;4.90;1.70;;;;;;;;;;6180204;23;20013;-83
2022/04/01 05:34:41;;;;;;;5.32;1.90;;;;;;;;;;6123743;23;20017;-84
2022/04/01 05:37:15;;;;;;;3.70;1.83;;;;;;;;;;6166970;23;20032;-81
2022/04/01 05:40:05;;;;;;;7.30;2.10;;;;;;;;;;6132449;23;20021;-78
2022/04/01 05:42:36;;;;;;;;;;;;;;;;;;6161768;23;20025;-79
2022/04/01 05:45:28;;;;;;;5.07;1.92;;;;;;;;;;6171756;23;19959;-80
2022/04/01 05:47:58;;;;;;;3.63;1.95;;;;;;;;;;6184272;23;20067;-79
2022/04/01 05:50:28;;;;;;;4.43;1.67;;;;;;;;;;6185801;23;20033;-79
2022/04/01 05:52:56;;;;;;;5.13;1.80;;;;;;;;;;6160787;23;20392;-79
2022/04/01 05:55:26;;;;;;;3.60;1.70;;;;;;;;;;6185375;23;20104;-78
2022/04/01 05:57:56;;;;;;;5.60;1.85;;;;;;;;;;6183739;23;20025;-78
2022/04/01 06:00:24;;;;;;;4.53;1.90;;;;;;;;;;6149850;23;20507;-79
2022/04/01 06:03:11;;;;;;;8.25;2.08;;;;;;;;;;6186709;23;20107;-79
2022/04/01 06:05:55;;;;;;;5.07;1.80;;;;;;;;;;6159912;23;20348;-79
2022/04/01 06:08:54;;;;;;;6.65;2.05;;;;;;;;;;6225617;22;20031;-79
2022/04/01 06:12:00;;;;;;;6.80;1.77;;;;;;;;;;6279362;22;20094;-79
2022/04/01 06:15:18;;;;;;;5.63;1.98;;;;;;;;;;6158603;23;20437;-85
2022/04/01 06:18:16;;;;;;;4.43;1.40;;;;;;;;;;6137712;23;20029;-85
2022/04/01 06:20:48;;;;;;;3.38;1.52;;;;;;;;;;6158653;23;20034;-85
2022/04/01 06:23:49;;;;;;;6.70;2.08;;;;;;;;;;6133745;23;20041;-85
2022/04/01 06:26:19;;;;;;;4.88;1.90;;;;;;;;;;6090458;23;20042;-85
2022/04/01 06:29:01;;;;;;;3.35;1.90;;;;;;;;;;6065565;23;20026;-85
2022/04/01 06:31:31;;;;;;;5.90;1.80;;;;;;;;;;6087636;23;20031;-84
2022/04/01 06:34:07;;;;;;;3.28;1.65;;;;;;;;;;6074065;23;20026;-84
2022/04/01 06:36:46;;;;;;;;;;;;;;;;;;6100094;23;20019;-85
2022/04/01 06:39:26;;;;;;;3.42;1.60;;;;;;;;;;6099772;23;19939;-85
2022/04/01 06:41:57;;;;;;;5.60;2.22;;;;;;;;;;6075450;23;20723;-83
2022/04/01 06:45:04;;;;;;;6.25;2.28;;;;;;;;;;6022484;23;20172;-83
2022/04/01 06:47:50;;;;;;;4.28;2.08;;;;;;;;;;6041065;23;20019;-84
2022/04/01 06:50:20;;;;;;;3.17;1.73;;;;;;;;;;6073504;23;20086;-84
2022/04/01 06:53:10;;;;;;;3.70;1.90;;;;;;;;;;6099709;23;20029;-83
2022/04/01 06:56:15;;;;;;;5.88;2.55;;;;;;;;;;6004088;23;20023;-83
2022/04/01 06:58:59;;;;;;;3.72;1.80;;;;;;;;;;6004603;23;20051;-84
2022/04/01 07:01:40;;;;;;;7.38;2.72;;;;;;;;;;5969590;23;20079;-84
2022/04/01 07:04:23;;;;;;;6.03;2.08;;;;;;;;;;6032555;23;20046;-83
2022/04/01 07:07:04;;;;;;;4.43;1.63;;;;;;;;;;6033675;23;20451;-84
2022/04/01 07:09:32;;;;;;;2.63;1.40;;;;;;;;;;6042871;23;20427;-82
2022/04/01 07:12:14;;;;;;;7.00;2.50;;;;;;;;;;6010235;23;20102;-82
2022/04/01 07:15:01;;;;;;;2.20;1.27;;;;;;;;;;6054431;23;20038;-83
2022/04/01 07:17:42;;;;;;;4.95;2.50;;;;;;;;;;6102517;23;20081;-82
2022/04/01 07:20:25;;;;;;;5.22;2.03;;;;;;;;;;6099486;23;20030;-82
2022/04/01 07:23:06;;;;;;;3.22;1.95;;;;;;;;;;6128025;23;20018;-84
2022/04/01 07:25:34;;;;;;;9.95;2.20;;;;;;;;;;6071096;23;20021;-85
2022/04/01 07:28:04;;;;;;;8.50;2.00;;;;;;;;;;6105691;23;20032;-84
2022/04/01 07:30:32;;;;;;;2.92;1.55;;;;;;;;;;6071683;23;20499;-84
2022/04/01 07:33:00;;;;;;;6.00;2.45;;;;;;;;;;6163037;22;20054;-83
2022/04/01 07:35:29;;;;;;;3.50;1.58;;;;;;;;;;6220371;22;20019;-84
2022/04/01 07:37:56;;;;;;;5.78;2.30;;;;;;;;;;6219604;22;20026;-84
2022/04/01 07:40:39;;;;;;;8.27;2.00;;;;;;;;;;6233734;22;20019;-85
2022/04/01 07:43:21;;;;;;;5.60;1.75;;;;;;;;;;6280833;22;20042;-87
2022/04/01 07:45:50;;;;;;;4.28;1.92;;;;;;;;;;6219679;22;20073;-85
2022/04/01 07:48:32;;;;;;;4.88;1.75;;;;;;;;;;6232714;22;20055;-85
2022/04/01 07:51:14;;;;;;;3.63;1.80;;;;;;;;;;6224600;22;20044;-85
2022/04/01 07:53:56;;;;;;;4.70;2.05;;;;;;;;;;6245561;22;20027;-85
2022/04/01 07:56:40;;;;;;;7.57;2.03;;;;;;;;;;6295800;22;20019;-85
2022/04/01 07:59:24;;;;;;;3.90;1.80;;;;;;;;;;6212275;22;20034;-85
2022/04/01 08:02:05;;;;;;;4.63;2.10;;;;;;;;;;6214354;22;20024;-85
2022/04/01 08:04:46;;;;;;;6.20;1.88;;;;;;;;;;6247439;22;20118;-85
2022/04/01 08:07:28;;;;;;;3.58;1.95;;;;;;;;;;6253353;22;20027;-84
2022/04/01 08:10:14;;;;;;;4.95;2.20;;;;;;;;;;6219738;22;20326;-85
2022/04/01 08:12:56;;;;;;;6.55;2.70;;;;;;;;;;6245410;22;20020;-85
2022/04/01 08:15:38;;;;;;;4.05;2.28;;;;;;;;;;6270169;22;20024;-85
2022/04/01 08:18:20;;;;;;;5.60;2.20;;;;;;;;;;6215220;22;20023;-84
2022/04/01 08:21:03;;;;;;;5.65;1.95;;;;;;;;;;6274232;22;20019;-85
2022/04/01 08:23:45;;;;;;;8.93;2.40;;;;;;;;;;6271794;22;20015;-84
2022/04/01 08:26:27;;;;;;;5.45;2.03;;;;;;;;;;6235752;22;20030;-85
2022/04/01 08:29:08;;;;;;;4.40;2.22;;;;;;;;;;6250982;22;20218;-85
2022/04/01 08:31:50;;;;;;;5.10;2.13;;;;;;;;;;6261054;22;20098;-85
2022/04/01 08:34:23;;;;;;;4.18;2.10;;;;;;;;;;6259154;22;20016;-85
2022/04/01 08:37:07;;;;;;;7.18;2.65;;;;;;;;;;6282734;22;20081;-85
2022/04/01 08:39:48;;;;;;;7.18;2.42;;;;;;;;;;6244715;22;20031;-85
2022/04/01 08:42:32;;;;;;;4.60;2.10;;;;;;;;;;6243773;22;20023;-85
2022/04/01 08:45:19;;;;;;;4.28;2.38;;;;;;;;;;6253577;22;20073;-85
2022/04/01 08:48:02;;;;;;;4.45;2.15;;;;;;;;;;6217594;22;20023;-83
2022/04/01 08:50:32;;;;;;;6.90;2.67;;;;;;;;;;6245528;22;20393;-84
2022/04/01 08:53:14;;;;;;;5.05;2.63;;;;;;;;;;6210787;22;20035;-84
2022/04/01 08:55:56;;;;;;;6.68;2.22;;;;;;;;;;6176594;22;20027;-84
2022/04/01 08:58:40;;;;;;;4.90;2.15;;;;;;;;;;6210860;22;20034;-83
2022/04/01 09:01:43;;;;;;;7.55;2.30;;;;;;;;;;6225874;22;20019;-84
2022/04/01 09:04:36;;;;;;;6.47;2.13;;;;;;;;;;6273212;22;20417;-81
2022/04/01 09:07:12;;;;;;;6.70;2.60;;;;;;;;;;6255338;22;20020;-81
2022/04/01 09:09:59;;;;;;;6.03;2.50;;;;;;;;;;6198187;22;20081;-81
2022/04/01 09:12:26;;;;;;;6.43;2.10;;;;;;;;;;6255175;22;20023;-81
2022/04/01 09:15:09;;;;;;;3.15;1.90;;;;;;;;;;6261426;22;20023;-82
2022/04/01 09:17:49;;;;;;;3.58;1.90;;;;;;;;;;6293402;22;20023;-81
2022/04/01 09:20:20;;;;;;;9.93;2.17;;;;;;;;;;6296098;22;20043;-81
2022/04/01 09:22:56;;;;;;;3.63;1.85;;;;;;;;;;6237929;22;20019;-81
2022/04/01 09:25:26;;;;;;;3.55;1.88;;;;;;;;;;6224819;22;20034;-81
2022/04/01 09:27:58;;;;;;;8.40;2.10;;;;;;;;;;6259751;22;20201;-81
2022/04/01 09:30:30;;;;;;;4.07;1.65;;;;;;;;;;6233088;22;20019;-81
2022/04/01 09:33:01;;;;;;;5.28;1.70;;;;;;;;;;6284084;22;20015;-82
2022/04/01 09:35:42;;;;;;;2.50;1.40;;;;;;;;;;6256633;22;20050;-81
2022/04/01 09:38:24;;;;;;;5.78;1.65;;;;;;;;;;6225781;22;20079;-81
2022/04/01 09:40:53;;;;;;;5.50;1.73;;;;;;;;;;6257143;22;20517;-81
2022/04/01 09:43:24;;;;;;;3.30;1.90;;;;;;;;;;6256748;22;20046;-82
2022/04/01 09:45:52;;;;;;;5.45;2.08;;;;;;;;;;6233049;22;20139;-81
2022/04/01 09:48:20;;;;;;;3.55;1.55;;;;;;;;;;6255891;22;20344;-82
2022/04/01 09:50:58;;;;;;;5.78;1.80;;;;;;;;;;6231093;22;20024;-82
2022/04/01 09:53:28;;;;;;;2.40;1.27;;;;;;;;;;6220866;22;20069;-82
2022/04/01 09:55:59;;;;;;;2.95;1.63;;;;;;;;;;6232361;22;20045;-81
2022/04/01 09:58:29;;;;;;;4.97;1.98;;;;;;;;;;6256209;22;20066;-81
2022/04/01 10:00:58;;;;;;;4.72;2.00;;;;;;;;;;6230598;22;20133;-82
2022/04/01 10:03:28;;;;;;;4.55;1.55;;;;;;;;;;6231944;22;20526;-82
2022/04/01 10:05:59;;;;;;;3.50;1.48;;;;;;;;;;6220612;22;20023;-82
2022/04/01 10:08:28;;;;;;;3.72;1.80;;;;;;;;;;6252550;22;20796;-82
2022/04/01 10:11:03;;;;;;;4.10;1.73;;;;;;;;;;6256800;22;20087;-81
2022/04/01 10:13:32;;;;;;;3.30;1.42;;;;;;;;;;6255315;22;20075;-81
2022/04/01 10:16:02;;;;;;;3.00;1.65;;;;;;;;;;6283602;22;20099;-81
2022/04/01 10:18:51;;;;;;;2.78;1.50;;;;;;;;;;6256267;22;20097;-81
2022/04/01 10:21:19;;;;;;;4.63;1.75;;;;;;;;;;6281704;22;20359;-81
2022/04/01 10:23:56;;;;;;;3.10;1.23;;;;;;;;;;6231347;22;20019;-81
2022/04/01 10:26:31;;;;;;;4.00;1.38;;;;;;;;;;6281593;22;20019;-81
2022/04/01 10:28:59;;;;;;;6.45;1.67;;;;;;;;;;6248062;22;20150;-80
2022/04/01 10:31:26;;;;;;;8.02;1.85;;;;;;;;;;6285642;22;20019;-81
2022/04/01 10:34:21;;;;;;;3.65;1.48;;;;;;;;;;6234145;22;20042;-81
2022/04/01 10:37:00;;;;;;;3.78;1.70;;;;;;;;;;6258542;22;20469;-81
2022/04/01 10:39:28;;;;;;;3.88;1.67;;;;;;;;;;6259139;22;20024;-81
2022/04/01 10:42:11;;;;;;;4.03;1.40;;;;;;;;;;6248725;22;20015;-81
2022/04/01 10:44:53;;;;;;;4.20;1.67;;;;;;;;;;6259308;22;20046;-81
2022/04/01 10:47:23;;;;;;;4.25;1.65;;;;;;;;;;6285664;22;20015;-81
2022/04/01 10:52:36;;;;;;;3.90;1.70;;;;;;;;;;6247518;22;20030;-81
2022/04/01 10:55:07;;;;;;;2.47;1.30;;;;;;;;;;6198710;22;20035;-81
2022/04/01 10:57:45;;;;;;;3.97;1.33;;;;;;;;;;6284430;22;20020;-81
2022/04/01 11:00:15;;;;;;;2.88;1.45;;;;;;;;;;6233159;22;20074;-81
2022/04/01 11:02:44;;;;;;;3.15;1.67;;;;;;;;;;6197607;22;20030;-81
2022/04/01 11:05:30;;;;;;;8.35;1.63;;;;;;;;;;6155149;23;20099;-81
2022/04/01 11:08:19;;;;;;;3.40;1.60;;;;;;;;;;6191248;23;20028;-81
2022/04/01 11:11:07;;;;;;;3.35;1.08;;;;;;;;;;6166581;23;20095;-81
2022/04/01 11:13:36;;;;;;;2.53;1.30;;;;;;;;;;6155790;23;20112;-80
2022/04/01 11:16:20;;;;;;;7.18;1.48;;;;;;;;;;6182448;23;20117;-82
2022/04/01 11:19:17;;;;;;;4.32;1.85;;;;;;;;;;6167390;23;20028;-81
2022/04/01 11:21:47;;;;;;;7.50;1.60;;;;;;;;;;6177964;23;20557;-81
2022/04/01 11:24:34;;;;;;;5.22;1.52;;;;;;;;;;6166369;23;20024;-83
2022/04/01 11:27:24;;;;;;;4.35;1.50;;;;;;;;;;6164306;23;20035;-79
2022/04/01 11:30:13;;;;;;;3.33;1.55;;;;;;;;;;6162436;23;20021;-80
2022/04/01 11:32:44;;;;;;;4.90;1.70;;;;;;;;;;6184466;23;20025;-80
2022/04/01 11:35:15;;;;;;;2.72;1.38;;;;;;;;;;6189222;22;20533;-82
2022/04/01 11:37:45;;;;;;;3.15;1.50;;;;;;;;;;6282786;22;20043;-79
2022/04/01 11:40:15;;;;;;;2.40;1.38;;;;;;;;;;6282371;22;20024;-79
2022/04/01 11:43:13;;;;;;;6.82;1.92;;;;;;;;;;6284286;22;20030;-81
2022/04/01 11:45:47;;;;;;;3.00;1.45;;;;;;;;;;6248832;22;20090;-82
2022/04/01 11:48:15;;;;;;;3.58;1.55;;;;;;;;;;6284878;22;20035;-80
2022/04/01 11:50:45;;;;;;;2.97;1.70;;;;;;;;;;6285966;22;20019;-81
2022/04/01 11:53:19;;;;;;;5.80;2.08;;;;;;;;;;6236985;22;20110;-81
2022/04/01 11:55:47;;;;;;;4.70;1.67;;;;;;;;;;6299961;22;20015;-81
2022/04/01 11:58:14;;;;;;;4.95;1.90;;;;;;;;;;6260401;22;20083;-81
2022/04/01 12:00:42;;;;;;;4.35;1.50;;;;;;;;;;6292729;22;20030;-81
2022/04/01 12:03:10;;;;;;;7.60;1.50;;;;;;;;;;6254642;22;20024;-81
2022/04/01 12:05:41;;;;;;;4.65;1.50;;;;;;;;;;6289367;22;20019;-80
2022/04/01 12:10:59;;;;;;;8.77;1.90;;;;;;;;;;6287793;22;20031;-80
2022/04/01 12:13:28;;;;;;;5.88;2.13;;;;;;;;;;6282925;22;20024;-79
2022/04/01 12:15:58;;;;;;;3.35;1.40;;;;;;;;;;6259549;22;20102;-80
2022/04/01 12:18:30;;;;;;;5.57;1.63;;;;;;;;;;6250274;22;20031;-80
2022/04/01 12:21:00;;;;;;;3.78;1.50;;;;;;;;;;6286216;22;20023;-79
2022/04/01 12:23:32;;;;;;;10.48;1.98;;;;;;;;;;6287555;22;20102;-82
2022/04/01 12:26:01;;;;;;;3.38;1.58;;;;;;;;;;6225395;22;20030;-80
2022/04/01 12:28:40;;;;;;;4.47;1.70;;;;;;;;;;6283730;22;20030;-82
2022/04/01 12:31:22;;;;;;;5.05;1.42;;;;;;;;;;6257422;22;20020;-80
2022/04/01 12:33:53;;;;;;;4.32;1.70;;;;;;;;;;6284102;22;20026;-79
2022/04/01 12:36:35;;;;;;;4.93;1.50;;;;;;;;;;6283770;22;20099;-80
2022/04/01 12:39:08;;;;;;;6.40;1.80;;;;;;;;;;6279181;22;20028;-79
2022/04/01 12:41:49;;;;;;;2.90;1.75;;;;;;;;;;6282328;22;20024;-80
2022/04/01 12:44:16;;;;;;;4.15;1.80;;;;;;;;;;6232248;22;20541;-79
2022/04/01 12:46:48;;;;;;;5.78;1.83;;;;;;;;;;6257365;22;20043;-79
2022/04/01 12:49:21;;;;;;;7.03;1.88;;;;;;;;;;6257974;22;20020;-79
2022/04/01 12:51:58;;;;;;;5.43;1.90;;;;;;;;;;6284121;22;20825;-79
2022/04/01 12:54:34;;;;;;;4.05;1.73;;;;;;;;;;6258153;22;20015;-79
2022/04/01 12:57:08;;;;;;;3.35;1.45;;;;;;;;;;6257473;22;20130;-79
2022/04/01 12:59:48;;;;;;;8.48;1.63;;;;;;;;;;6233224;22;20030;-80
2022/04/01 13:02:19;;;;;;;4.95;1.60;;;;;;;;;;6283458;22;20030;-80
2022/04/01 13:04:51;;;;;;;3.40;1.30;;;;;;;;;;6284528;22;20110;-79
2022/04/01 13:07:22;;;;;;;4.97;1.80;;;;;;;;;;6257695;22;20020;-81
2022/04/01 13:09:55;;;;;;;5.35;1.70;;;;;;;;;;6258087;22;20122;-80
2022/04/01 13:12:43;;;;;;;2.80;1.20;;;;;;;;;;6231480;22;20027;-79
2022/04/01 13:15:12;;;;;;;3.30;1.60;;;;;;;;;;6256728;22;20106;-80
2022/04/01 13:17:52;;;;;;;3.33;1.60;;;;;;;;;;6257189;22;20461;-81
2022/04/01 13:20:26;;;;;;;2.85;1.30;;;;;;;;;;6283845;22;20024;-80
2022/04/01 13:22:55;;;;;;;2.92;1.33;;;;;;;;;;6281346;22;20090;-79
2022/04/01 13:25:23;;;;;;;5.93;2.10;;;;;;;;;;6281519;22;20026;-79
2022/04/01 13:27:50;;;;;;;2.90;1.38;;;;;;;;;;6280515;22;20027;-80
2022/04/01 13:30:18;;;;;;;5.95;1.42;;;;;;;;;;6281516;22;20023;-79
2022/04/01 13:32:46;;;;;;;3.15;1.20;;;;;;;;;;6280517;22;20024;-79
2022/04/01 13:35:15;;;;;;;5.53;2.08;;;;;;;;;;6254474;22;20038;-81
2022/04/01 13:37:43;;;;;;;3.78;1.30;;;;;;;;;;6254583;22;20795;-81
2022/04/01 13:40:11;;;;;;;5.40;1.67;;;;;;;;;;6219427;22;20019;-80
2022/04/01 13:42:38;;;;;;;3.10;1.33;;;;;;;;;;6281072;22;20026;-79
2022/04/01 13:45:06;;;;;;;4.53;1.60;;;;;;;;;;6254892;22;20011;-80
2022/04/01 13:47:34;;;;;;;1.77;1.00;;;;;;;;;;6218624;22;20031;-80
2022/04/01 13:50:02;;;;;;;3.28;1.02;;;;;;;;;;6229789;22;20016;-80
2022/04/01 13:52:30;;;;;;;2.95;1.38;;;;;;;;;;6282156;22;20069;-81
2022/04/01 13:54:59;;;;;;;4.30;1.88;;;;;;;;;;6253948;22;20446;-80
2022/04/01 13:57:26;;;;;;;4.95;1.25;;;;;;;;;;6283014;22;20043;-80
2022/04/01 13:59:54;;;;;;;5.20;1.52;;;;;;;;;;6230490;22;20081;-80
2022/04/01 14:02:22;;;;;;;8.23;1.92;;;;;;;;;;6281803;22;20085;-81
2022/04/01 14:04:50;;;;;;;6.75;1.60;;;;;;;;;;6233287;22;20019;-81
2022/04/01 14:07:18;;;;;;;3.13;1.33;;;;;;;;;;6257529;22;20030;-81
2022/04/01 14:09:46;;;;;;;4.78;1.85;;;;;;;;;;6285660;22;20081;-81
2022/04/01 14:12:26;;;;;;;4.90;1.70;;;;;;;;;;6284034;22;20019;-82
2022/04/01 14:14:54;;;;;;;2.90;1.40;;;;;;;;;;6257785;22;20020;-81
2022/04/01 14:17:23;;;;;;;4.20;1.73;;;;;;;;;;6257465;22;20054;-81
2022/04/01 14:19:50;;;;;;;3.47;1.42;;;;;;;;;;6285291;22;20488;-80
2022/04/01 14:22:18;;;;;;;3.58;1.40;;;;;;;;;;6232961;22;20072;-81
2022/04/01 14:24:46;;;;;;;6.88;1.80;;;;;;;;;;6259300;22;20022;-80
2022/04/01 14:27:14;;;;;;;5.03;1.50;;;;;;;;;;6283751;22;20027;-80
2022/04/01 14:32:30;;;;;;;2.88;1.50;;;;;;;;;;6257133;22;20095;-81
2022/04/01 14:34:59;;;;;;;3.72;1.30;;;;;;;;;;6284778;22;20453;-79
2022/04/01 14:37:26;;;;;;;3.42;1.35;;;;;;;;;;6245333;22;20019;-81
2022/04/01 14:39:54;;;;;;;4.38;1.75;;;;;;;;;;6259718;22;20043;-81
2022/04/01 14:42:22;;;;;;;7.63;1.65;;;;;;;;;;6285478;22;20026;-82
2022/04/01 14:44:50;;;;;;;8.95;1.80;;;;;;;;;;6222720;22;20044;-81
2022/04/01 14:47:18;;;;;;;4.68;1.13;;;;;;;;;;6265080;22;20083;-81
2022/04/01 14:49:46;;;;;;;5.82;1.42;;;;;;;;;;6276627;22;20012;-80
2022/04/01 14:52:14;;;;;;;4.30;1.42;;;;;;;;;;6274580;22;20042;-82
2022/04/01 14:54:42;;;;;;;4.95;1.60;;;;;;;;;;6267898;22;20016;-82
2022/04/01 14:57:10;;;;;;;4.97;1.73;;;;;;;;;;6263041;22;20115;-81
2022/04/01 14:59:38;;;;;;;3.63;1.30;;;;;;;;;;6255019;22;20106;-79
2022/04/01 15:02:06;;;;;;;5.47;1.88;;;;;;;;;;6276612;22;20024;-78
2022/04/01 15:04:34;;;;;;;5.15;1.80;;;;;;;;;;6227031;22;20016;-78
2022/04/01 15:07:11;;;;;;;4.40;1.95;;;;;;;;;;6279149;22;20012;-79
2022/04/01 15:09:41;;;;;;;5.57;1.80;;;;;;;;;;6244686;22;20074;-78
2022/04/01 15:12:10;;;;;;;4.72;1.80;;;;;;;;;;6278027;22;20466;-78
2022/04/01 15:14:39;;;;;;;4.10;1.08;;;;;;;;;;6251496;22;20020;-78
2022/04/01 15:17:06;;;;;;;5.20;1.48;;;;;;;;;;6278685;22;20621;-78
2022/04/01 15:19:35;;;;;;;3.08;1.25;;;;;;;;;;6253594;22;20130;-79
2022/04/01 15:22:02;;;;;;;4.68;1.50;;;;;;;;;;6283016;22;20020;-80
2022/04/01 15:24:30;;;;;;;6.05;1.70;;;;;;;;;;6199322;22;20098;-80
2022/04/01 15:26:58;;;;;;;3.85;1.85;;;;;;;;;;6255379;22;20070;-80
2022/04/01 15:29:29;;;;;;;5.22;1.80;;;;;;;;;;6250397;22;20118;-81
2022/04/01 15:31:57;;;;;;;5.15;1.98;;;;;;;;;;6259155;22;20019;-82
2022/04/01 15:34:30;;;;;;;2.63;1.27;;;;;;;;;;6286700;22;20042;-82
2022/04/01 15:37:01;;;;;;;4.47;1.30;;;;;;;;;;6233302;22;20019;-81
2022/04/01 15:39:29;;;;;;;2.45;1.20;;;;;;;;;;6285225;22;20031;-81
2022/04/01 15:42:00;;;;;;;3.53;1.35;;;;;;;;;;6221890;22;20030;-81
2022/04/01 15:44:31;;;;;;;3.85;1.83;;;;;;;;;;6258718;22;20324;-81
2022/04/01 15:47:00;;;;;;;9.38;1.67;;;;;;;;;;6284811;22;20016;-81
2022/04/01 15:49:29;;;;;;;4.18;1.38;;;;;;;;;;6284865;22;20024;-81
2022/04/01 15:51:57;;;;;;;5.60;1.40;;;;;;;;;;6232545;22;20026;-81
2022/04/01 15:54:24;;;;;;;3.17;1.40;;;;;;;;;;6258168;22;20031;-83
2022/04/01 15:56:55;;;;;;;4.03;1.30;;;;;;;;;;6257657;22;20023;-81
2022/04/01 15:59:22;;;;;;;2.53;0.90;;;;;;;;;;6285185;22;20027;-81
2022/04/01 16:01:51;;;;;;;5.40;1.60;;;;;;;;;;6284275;22;20023;-82
2022/04/01 16:04:23;;;;;;;7.85;2.20;;;;;;;;;;6257253;22;20123;-83
2022/04/01 16:06:55;;;;;;;3.08;1.33;;;;;;;;;;6284171;22;20019;-84
2022/04/01 16:09:38;;;;;;;5.00;1.80;;;;;;;;;;6255365;22;20055;-85
2022/04/01 16:12:23;;;;;;;4.72;1.33;;;;;;;;;;6219157;22;20016;-84
2022/04/01 16:15:04;;;;;;;4.25;1.23;;;;;;;;;;6258065;22;20011;-83
2022/04/01 16:17:36;;;;;;;2.05;1.02;;;;;;;;;;6283460;22;20062;-83
2022/04/01 16:20:18;;;;;;;3.85;1.42;;;;;;;;;;6260007;22;20019;-82
2022/04/01 16:23:01;;;;;;;3.22;1.45;;;;;;;;;;6220979;22;20150;-83
2022/04/01 16:25:43;;;;;;;5.93;1.40;;;;;;;;;;6191488;22;20046;-82
2022/04/01 16:28:26;;;;;;;5.70;1.65;;;;;;;;;;6283342;22;20095;-83
2022/04/01 16:31:08;;;;;;;2.90;1.33;;;;;;;;;;6233756;22;20031;-84
2022/04/01 16:33:37;;;;;;;5.07;2.55;;;;;;;;;;6256501;22;20034;-82
2022/04/01 16:36:05;;;;;;;3.20;1.67;;;;;;;;;;6283565;22;20099;-82
2022/04/01 16:38:32;;;;;;;20.67;7.38;;;;;;;;;;6257367;22;20454;-82
2022/04/01 16:41:00;;;;;;;7.90;2.78;;;;;;;;;;6283866;22;20030;-82
2022/04/01 16:43:28;;;;;;;4.80;1.48;;;;;;;;;;6231599;22;20069;-82
2022/04/01 16:45:56;;;;;;;2.92;1.05;;;;;;;;;;6284356;22;20043;-82
2022/04/01 16:48:24;;;;;;;3.97;1.50;;;;;;;;;;6284601;22;20023;-83
2022/04/01 16:50:53;;;;;;;6.15;2.05;;;;;;;;;;6285000;22;20026;-82
2022/04/01 16:53:20;;;;;;;4.32;1.52;;;;;;;;;;6286086;22;20126;-82
2022/04/01 16:55:54;;;;;;;5.35;1.70;;;;;;;;;;6261603;22;20088;-81
2022/04/01 16:58:22;;;;;;;2.53;1.27;;;;;;;;;;6285296;22;20019;-83
2022/04/01 17:00:50;;;;;;;3.58;1.30;;;;;;;;;;6260178;22;20058;-82
2022/04/01 17:03:18;;;;;;;11.48;1.52;;;;;;;;;;6286603;22;20016;-82
2022/04/01 17:14:30;;;;;;;6.65;1.88;;;;;;;;;;6248354;22;20015;-82
2022/04/01 17:17:02;;;;;;;10.77;3.63;;;;;;;;;;6248225;22;20331;-82
2022/04/01 17:19:30;;;;;;;36.03;9.63;;;;;;;;;;6259673;22;20122;-82
2022/04/01 17:21:59;;;;;;;28.25;5.78;;;;;;;;;;6285518;22;20019;-82
2022/04/01 17:24:57;;;;;;;15.40;4.43;;;;;;;;;;6249101;22;20069;-82
2022/04/01 17:27:25;;;;;;;15.73;5.13;;;;;;;;;;6106994;23;20026;-82
2022/04/01 17:29:52;;;;;;;12.68;4.53;;;;;;;;;;6131260;23;20018;-82
2022/04/01 17:32:23;;;;;;;9.90;3.45;;;;;;;;;;6131333;23;20929;-82
2022/04/01 17:34:53;;;;;;;2.30;1.20;;;;;;;;;;6131602;23;20965;-82
2022/04/01 17:37:23;;;;;;;3.85;2.25;;;;;;;;;;6097105;23;20121;-82
2022/04/01 17:39:51;;;;;;;5.63;1.35;;;;;;;;;;6123214;23;20018;-82
2022/04/01 17:42:24;;;;;;;2.58;1.00;;;;;;;;;;6130829;23;20110;-82
2022/04/01 17:44:55;;;;;;;3.42;1.40;;;;;;;;;;6107311;23;20022;-82
2022/04/01 17:47:23;;;;;;;3.42;1.38;;;;;;;;;;6130913;23;20101;-82
2022/04/01 17:49:51;;;;;;;4.65;1.85;;;;;;;;;;6096475;23;20032;-83
2022/04/01 17:52:21;;;;;;;6.07;1.58;;;;;;;;;;6131684;23;20840;-82
2022/04/01 17:54:49;;;;;;;5.35;2.22;;;;;;;;;;6083401;23;20021;-83
2022/04/01 17:57:18;;;;;;;4.13;1.63;;;;;;;;;;6131082;23;20026;-82
2022/04/01 17:59:57;;;;;;;3.80;1.20;;;;;;;;;;6107393;23;20450;-83
2022/04/01 18:02:41;;;;;;;3.28;1.50;;;;;;;;;;6095941;23;20026;-82
2022/04/01 18:05:09;;;;;;;2.42;1.05;;;;;;;;;;6197113;22;20103;-82
2022/04/01 18:07:42;;;;;;;3.30;1.02;;;;;;;;;;6258264;22;20097;-82
2022/04/01 18:10:12;;;;;;;2.47;1.10;;;;;;;;;;6247049;22;20019;-82
2022/04/01 18:12:40;;;;;;;2.53;0.98;;;;;;;;;;6222037;22;20068;-82
2022/04/01 18:15:09;;;;;;;4.55;1.23;;;;;;;;;;6258549;22;20012;-82
2022/04/01 18:17:36;;;;;;;1.73;0.90;;;;;;;;;;6259341;22;20085;-82
2022/04/01 18:20:12;;;;;;;3.42;1.45;;;;;;;;;;6268183;22;20689;-82
2022/04/01 18:22:41;;;;;;;5.47;1.23;;;;;;;;;;6294115;22;20098;-82
2022/04/01 18:25:15;;;;;;;2.50;1.20;;;;;;;;;;6243096;22;20019;-82
2022/04/01 18:28:03;;;;;;;5.10;1.48;;;;;;;;;;6295746;22;20726;-81
2022/04/01 18:30:34;;;;;;;4.10;1.50;;;;;;;;;;6258808;22;20016;-82
2022/04/01 18:33:05;;;;;;;1.95;1.15;;;;;;;;;;6265731;22;20456;-82
2022/04/01 18:35:39;;;;;;;3.08;1.42;;;;;;;;;;6288005;22;20012;-82
2022/04/01 18:38:11;;;;;;;2.17;0.95;;;;;;;;;;6287473;22;20023;-82